Maryneal, Texas
Current Conditions -  °F | °C
As of 6:35 AM on Friday 19 Dec 2014 (Local Time) from KSWW Reporting Station
Overcast Overcast  
Wind Chill: 36°   Ceiling: 500
Heat Index: 40°   Visibility: 5mi
Dew Point: 40°   Wind: 7mph
Humidity: 100%   Direction: 50°NE
Pressure: 30.18"   Gusts: NA
Location:  32.24°N, 100.45°W
Report Text: KSWW 191235Z AUTO 05006KT 5SM OVC005 05/05 A3018 RMK AO2 T00460046
Loading
Personal Weather Stations






























Interactive Weather Map New forecast layout! Learn more

10-Day Weather Forecast

Advertisements
Track Severe Weather on mobile